createdAt,value
2023-02-18T00:02:05.475Z,8.81
2023-02-18T00:12:07.626Z,8.40
2023-02-18T00:22:29.774Z,8.56
2023-02-18T00:32:32.169Z,8.63
2023-02-18T00:42:35.822Z,8.76
2023-02-18T00:52:38.031Z,8.60
2023-02-18T01:02:40.173Z,8.28
2023-02-18T01:12:42.366Z,8.53
2023-02-18T01:22:45.023Z,8.76
2023-02-18T01:32:47.237Z,8.45
2023-02-18T01:42:49.800Z,8.49
2023-02-18T01:52:52.504Z,8.52
2023-02-18T02:02:55.834Z,8.50
2023-02-18T02:13:26.556Z,8.14
2023-02-18T02:23:37.628Z,8.54
2023-02-18T02:34:10.670Z,8.53
2023-02-18T02:44:34.705Z,8.50
2023-02-18T02:54:37.149Z,7.98
2023-02-18T03:05:07.733Z,8.62
2023-02-18T03:15:21.297Z,8.70
2023-02-18T03:25:24.230Z,7.97
2023-02-18T03:35:27.560Z,8.31
2023-02-18T03:45:30.249Z,8.38
2023-02-18T03:55:33.428Z,7.84
2023-02-18T04:05:36.585Z,8.38
2023-02-18T04:15:38.756Z,7.98
2023-02-18T04:25:41.313Z,8.25
2023-02-18T04:35:43.613Z,7.96
2023-02-18T04:45:46.094Z,7.88
2023-02-18T04:55:52.268Z,7.60
2023-02-18T05:05:54.676Z,8.34
2023-02-18T05:15:57.124Z,8.13
2023-02-18T05:25:59.358Z,7.88
2023-02-18T05:36:01.583Z,7.82
2023-02-18T05:46:04.225Z,7.99
2023-02-18T05:56:07.077Z,7.87
2023-02-18T06:06:09.820Z,7.86
2023-02-18T06:16:12.432Z,7.36
2023-02-18T06:26:14.716Z,7.69
2023-02-18T06:36:16.920Z,7.71
2023-02-18T06:46:19.134Z,7.84
2023-02-18T06:56:21.384Z,7.64
2023-02-18T07:06:23.516Z,7.27
2023-02-18T07:16:25.748Z,7.61
2023-02-18T07:26:27.952Z,7.46
2023-02-18T07:36:30.016Z,7.56
2023-02-18T07:46:33.171Z,7.94
2023-02-18T07:56:35.457Z,7.44
2023-02-18T08:06:42.635Z,7.39
2023-02-18T08:16:45.298Z,7.52
2023-02-18T08:26:59.746Z,7.47
2023-02-18T08:37:03.311Z,7.66
2023-02-18T08:47:05.919Z,7.79
2023-02-18T08:57:28.559Z,7.34
2023-02-18T09:07:30.707Z,6.93
2023-02-18T09:17:33.353Z,7.21
2023-02-18T09:27:35.801Z,6.98
2023-02-18T09:37:39.874Z,6.99
2023-02-18T09:47:44.974Z,7.40
2023-02-18T09:57:49.643Z,7.04
2023-02-18T10:07:55.384Z,7.25
2023-02-18T10:17:59.474Z,7.37
2023-02-18T10:28:01.797Z,6.96
2023-02-18T10:38:38.206Z,7.32
2023-02-18T10:49:04.848Z,7.05
2023-02-18T10:59:12.831Z,7.32
2023-02-18T11:09:47.940Z,7.75
2023-02-18T11:19:58.304Z,7.33
2023-02-18T11:30:05.780Z,6.92
2023-02-18T11:40:19.704Z,7.31
2023-02-18T11:50:22.766Z,6.89
2023-02-18T12:00:41.976Z,7.15
2023-02-18T12:10:50.983Z,7.39
2023-02-18T12:21:08.545Z,7.46
2023-02-18T12:31:36.986Z,7.00
2023-02-18T12:41:49.616Z,7.35
2023-02-18T12:52:17.052Z,7.46
2023-02-18T13:02:29.272Z,7.07
2023-02-18T13:12:40.647Z,8.01
2023-02-18T13:22:44.390Z,7.64
2023-02-18T13:33:09.039Z,7.63
2023-02-18T13:43:30.438Z,7.96
2023-02-18T13:53:36.742Z,7.65
2023-02-18T14:03:47.900Z,7.71
2023-02-18T14:13:54.504Z,7.95
2023-02-18T14:24:00.609Z,7.97
2023-02-18T14:34:28.969Z,7.53
2023-02-18T14:44:43.322Z,8.44
2023-02-18T14:54:46.277Z,8.29
2023-02-18T15:04:50.553Z,8.26
2023-02-18T15:14:54.734Z,8.48
2023-02-18T15:25:00.116Z,8.18
2023-02-18T15:35:13.241Z,8.73
2023-02-18T15:45:36.794Z,8.51
2023-02-18T15:55:40.852Z,8.72
2023-02-18T16:05:45.389Z,8.45
2023-02-18T16:15:51.431Z,8.75
2023-02-18T16:25:55.596Z,7.79
2023-02-18T16:36:00.473Z,8.40
2023-02-18T16:46:23.693Z,8.76
2023-02-18T16:56:30.790Z,8.29
2023-02-18T17:06:34.401Z,8.61
2023-02-18T17:16:36.762Z,8.77
2023-02-18T17:26:39.180Z,8.77
2023-02-18T17:36:45.603Z,8.60
2023-02-18T17:46:49.721Z,8.51
2023-02-18T17:56:53.360Z,8.75
2023-02-18T18:06:57.665Z,8.62
2023-02-18T18:17:02.883Z,8.29
2023-02-18T18:27:09.329Z,8.06
2023-02-18T18:37:12.986Z,8.65
2023-02-18T18:47:15.461Z,9.16
2023-02-18T18:57:18.925Z,8.24
2023-02-18T19:07:21.058Z,8.65
2023-02-18T19:17:24.465Z,8.72
2023-02-18T19:27:27.056Z,8.32
2023-02-18T19:37:32.964Z,8.31
2023-02-18T19:47:36.209Z,8.39
2023-02-18T19:57:39.203Z,8.42
2023-02-18T20:18:12.628Z,8.35
2023-02-18T20:28:15.605Z,7.89
2023-02-18T20:38:18.867Z,8.43
2023-02-18T20:48:21.262Z,8.48
2023-02-18T20:58:24.800Z,7.54
2023-02-18T21:08:27.714Z,8.54
2023-02-18T21:18:30.267Z,8.23
2023-02-18T21:28:32.972Z,8.43
2023-02-18T21:38:36.119Z,8.24
2023-02-18T21:48:57.843Z,8.88
2023-02-18T21:59:00.243Z,8.57
2023-02-18T22:09:03.886Z,8.09
2023-02-18T22:19:06.278Z,8.20
2023-02-18T22:29:08.688Z,7.72
2023-02-18T22:39:11.804Z,7.67
2023-02-18T22:49:14.309Z,7.96
2023-02-18T22:59:18.564Z,7.88
2023-02-18T23:09:23.502Z,8.18
2023-02-18T23:19:27.716Z,8.47
2023-02-18T23:29:29.941Z,7.92
2023-02-18T23:39:32.511Z,7.61
2023-02-18T23:49:34.708Z,8.21
2023-02-18T23:59:36.965Z,7.53
